Time;durP1;ratioP1;P1;durP2;ratioP2;P2;SDS_P1;SDS_P2;PMS_P1;PMS_P2;Temp;Humidity;BMP_temperature;BMP_pressure;BME280_temperature;BME280_humidity;BME280_pressure;Samples;Min_cycle;Max_cycle;Signal;HPM_P1;HPM_P2
2022/01/14 00:01:46;;;;;;;26.50;13.93;;;;;;;-2.70;100.00;100631.38;5001303;28;20209;-74
2022/01/14 00:04:12;;;;;;;27.37;13.67;;;;;;;-2.54;100.00;100627.78;4991704;28;20195;-74
2022/01/14 00:06:40;;;;;;;28.67;16.13;;;;;;;-2.52;100.00;100625.19;4991907;28;20551;-73
2022/01/14 00:09:10;;;;;;;34.27;16.00;;;;;;;-2.55;100.00;100635.47;4992012;28;20271;-73
2022/01/14 00:11:40;;;;;;;28.80;14.93;;;;;;;-2.59;100.00;100639.78;4985132;28;20684;-72
2022/01/14 00:14:19;;;;;;;27.37;14.63;;;;;;;-2.58;100.00;100646.59;4989092;28;20307;-71
2022/01/14 00:16:47;;;;;;;29.73;14.27;;;;;;;-2.59;100.00;100644.88;4991522;28;20555;-72
2022/01/14 00:19:13;;;;;;;24.77;13.03;;;;;;;-2.62;100.00;100644.91;4991912;28;20203;-71
2022/01/14 00:21:43;;;;;;;28.43;13.73;;;;;;;-2.70;100.00;100644.16;4991816;28;20188;-71
2022/01/14 00:24:13;;;;;;;26.37;14.10;;;;;;;-2.71;100.00;100645.88;4991671;28;20735;-70
2022/01/14 00:32:14;;;;;;;37.10;21.00;;;;;;;-2.70;100.00;100636.50;4985103;28;20192;-73
2022/01/14 00:47:34;;;;;;;31.40;17.17;;;;;;;-2.66;100.00;100625.38;5123740;22;20226;-60
2022/01/14 00:50:01;;;;;;;32.10;16.97;;;;;;;-2.66;100.00;100620.25;5006367;28;20698;-59
2022/01/14 00:52:28;;;;;;;28.33;15.50;;;;;;;-2.66;100.00;100625.38;5007896;28;20215;-61
2022/01/14 00:54:55;;;;;;;27.20;14.30;;;;;;;-2.68;100.00;100627.09;5007423;28;20210;-60
2022/01/14 00:59:13;;;;;;;27.50;14.57;;;;;;;-2.72;100.00;100626.28;5005545;28;20277;-60
2022/01/14 01:00:14;;;;;;;29.43;14.87;;;;;;;-2.68;100.00;100637.31;5001857;28;20214;-60
2022/01/14 01:02:42;;;;;;;31.17;14.93;;;;;;;-2.69;100.00;100633.94;5001003;28;20186;-60
2022/01/14 01:05:09;;;;;;;28.60;15.23;;;;;;;-2.70;100.00;100633.94;5005236;28;20202;-61
2022/01/14 01:07:37;;;;;;;30.60;15.73;;;;;;;-2.74;100.00;100632.28;5006042;28;20459;-60
2022/01/14 01:10:04;;;;;;;27.53;15.10;;;;;;;-2.74;100.00;100637.38;5005540;28;20184;-60
2022/01/14 01:12:36;;;;;;;27.27;13.63;;;;;;;-2.65;100.00;100628.78;5001357;28;20707;-60
2022/01/14 01:15:06;;;;;;;26.70;13.00;;;;;;;-2.67;100.00;100621.13;4995565;28;20227;-60
2022/01/14 01:17:34;;;;;;;30.97;13.40;;;;;;;-2.60;100.00;100627.00;5006516;28;20212;-60
2022/01/14 01:20:10;;;;;;;27.13;12.93;;;;;;;-2.54;100.00;100615.00;5006250;28;20199;-60
2022/01/14 01:22:36;;;;;;;26.83;12.77;;;;;;;-2.56;100.00;100605.63;5005685;28;20263;-61
2022/01/14 01:31:42;;;;;;;22.73;10.93;;;;;;;-2.65;100.00;100619.38;5329752;22;20279;-60
2022/01/14 01:34:12;;;;;;;19.73;10.73;;;;;;;-2.68;100.00;100624.53;5007640;28;20210;-60
2022/01/14 01:36:42;;;;;;;22.70;11.37;;;;;;;-2.67;100.00;100631.34;5007332;28;20211;-59
2022/01/14 01:39:11;;;;;;;21.30;11.10;;;;;;;-2.65;100.00;100641.56;5006758;28;20262;-60
2022/01/14 01:42:28;;;;;;;22.97;11.23;;;;;;;-2.70;100.00;100649.28;4879039;28;20822;-60
2022/01/14 01:45:10;;;;;;;21.87;11.20;;;;;;;-2.62;100.00;100654.28;4630577;23;21164;-59
2022/01/14 01:48:11;;;;;;;23.03;12.33;;;;;;;-2.71;100.00;100661.22;4583426;28;20565;-60
2022/01/14 01:50:38;;;;;;;19.27;10.77;;;;;;;-2.73;100.00;100670.63;4945347;28;20216;-59
2022/01/14 01:53:06;;;;;;;29.53;14.73;;;;;;;-2.71;100.00;100676.56;4947632;29;20272;-59
2022/01/14 01:55:33;;;;;;;31.43;15.87;;;;;;;-2.75;100.00;100679.16;4947168;28;20297;-58
2022/01/14 02:05:34;;;;;;;34.30;15.87;;;;;;;-2.76;100.00;100678.31;4946970;28;20748;-62
2022/01/14 02:08:01;;;;;;;35.57;16.87;;;;;;;-2.83;100.00;100676.69;4942543;28;20252;-61
2022/01/14 02:10:29;;;;;;;34.63;18.37;;;;;;;-2.82;100.00;100675.81;4946626;28;20201;-60
2022/01/14 02:12:56;;;;;;;33.83;18.43;;;;;;;-2.84;100.00;100682.66;4944760;28;20218;-61
2022/01/14 02:15:31;;;;;;;38.80;18.73;;;;;;;-2.85;100.00;100680.97;4939309;28;20230;-62
2022/01/14 02:26:02;;;;;;;39.50;20.00;;;;;;;-2.93;100.00;100659.75;4965182;28;20580;-57
2022/01/14 02:28:28;;;;;;;44.47;21.40;;;;;;;-3.00;100.00;100651.25;4964795;28;20525;-57
2022/01/14 02:30:55;;;;;;;45.73;21.03;;;;;;;-3.02;100.00;100652.97;4963568;28;20211;-58
2022/01/14 02:33:22;;;;;;;35.57;18.07;;;;;;;-3.04;100.00;100647.03;4966613;28;20223;-57
2022/01/14 02:35:51;;;;;;;34.07;17.93;;;;;;;-3.01;100.00;100636.78;4968454;28;20212;-58
2022/01/14 02:38:19;;;;;;;29.53;16.03;;;;;;;-3.02;100.00;100633.41;4971040;28;20212;-57
2022/01/14 02:40:48;;;;;;;30.27;15.30;;;;;;;-3.03;100.00;100626.59;4973162;28;20207;-59
2022/01/14 02:43:17;;;;;;;28.03;14.93;;;;;;;-3.04;100.00;100619.81;4977769;28;20701;-58
2022/01/14 02:45:48;;;;;;;26.60;14.47;;;;;;;-3.11;100.00;100616.44;4973552;28;20246;-59
2022/01/14 02:48:15;;;;;;;31.07;15.90;;;;;;;-3.05;100.00;100615.56;4974778;28;20280;-59
2022/01/14 02:50:54;;;;;;;26.80;14.70;;;;;;;-2.94;100.00;100610.31;4974808;28;20256;-59
2022/01/14 02:53:27;;;;;;;30.40;14.33;;;;;;;-3.05;100.00;100605.34;4975074;28;20209;-58
2022/01/14 02:55:56;;;;;;;29.03;14.80;;;;;;;-3.13;100.00;100595.16;4967504;28;20250;-59
2022/01/14 02:58:29;;;;;;;29.27;15.07;;;;;;;-3.11;100.00;100600.28;4967874;28;20204;-58
2022/01/14 03:00:58;;;;;;;30.50;15.13;;;;;;;-3.12;100.00;100596.88;4972770;28;20291;-58
2022/01/14 03:03:27;;;;;;;31.73;15.37;;;;;;;-3.08;100.00;100595.13;4972125;28;20236;-58
2022/01/14 03:05:53;;;;;;;31.53;14.90;;;;;;;-3.05;100.00;100601.91;4976222;28;20209;-57
2022/01/14 03:08:21;;;;;;;30.53;14.97;;;;;;;-3.08;100.00;100596.84;4970172;28;20670;-57
2022/01/14 03:10:54;;;;;;;31.13;14.67;;;;;;;-3.09;100.00;100595.13;4976987;28;20268;-58
2022/01/14 03:13:21;;;;;;;26.87;14.00;;;;;;;-3.07;100.00;100594.28;4973837;28;20224;-58
2022/01/14 03:15:49;;;;;;;28.87;14.63;;;;;;;-3.09;100.00;100595.13;4970353;28;20203;-58
2022/01/14 03:18:23;;;;;;;26.13;14.33;;;;;;;-3.08;100.00;100592.59;4981396;28;20677;-57
2022/01/14 03:20:59;;;;;;;31.50;14.23;;;;;;;-3.06;100.00;100592.56;4983006;28;21236;-58
2022/01/14 03:23:26;;;;;;;24.67;13.20;;;;;;;-3.12;100.00;100599.41;4984636;28;20266;-59
2022/01/14 03:25:53;;;;;;;26.33;13.87;;;;;;;-3.11;100.00;100588.34;4988215;28;20238;-57
2022/01/14 03:28:25;;;;;;;30.90;15.77;;;;;;;-3.14;100.00;100588.38;4982678;28;20190;-58
2022/01/14 03:30:54;;;;;;;33.73;16.20;;;;;;;-3.14;100.00;100582.44;4968346;28;20661;-58
2022/01/14 03:33:21;;;;;;;35.93;17.93;;;;;;;-3.14;100.00;100580.69;4978074;28;20679;-59
2022/01/14 03:35:48;;;;;;;37.17;19.37;;;;;;;-3.18;100.00;100579.03;4979181;28;20212;-58
2022/01/14 03:38:16;;;;;;;37.80;18.57;;;;;;;-3.18;100.00;100573.94;4982389;28;20200;-59
2022/01/14 03:40:42;;;;;;;38.47;18.67;;;;;;;-3.11;100.00;100573.00;4975326;28;20259;-57
2022/01/14 03:43:10;;;;;;;40.20;18.50;;;;;;;-3.09;100.00;100575.56;4970010;28;20705;-58
2022/01/14 03:45:38;;;;;;;39.37;18.53;;;;;;;-3.13;100.00;100579.00;4970364;28;20197;-58
2022/01/14 03:48:07;;;;;;;34.30;17.47;;;;;;;-3.15;100.00;100579.00;4970426;28;20240;-58
2022/01/14 03:50:33;;;;;;;39.30;17.67;;;;;;;-3.19;100.00;100572.28;4982702;28;20195;-58
2022/01/14 03:53:01;;;;;;;38.43;17.97;;;;;;;-3.14;100.00;100580.69;4980325;28;20213;-58
2022/01/14 03:55:28;;;;;;;35.27;17.90;;;;;;;-3.10;100.00;100578.97;4977706;28;20238;-57
2022/01/14 03:57:55;;;;;;;51.97;21.70;;;;;;;-2.99;100.00;100566.94;4979478;28;20224;-58
2022/01/14 04:00:22;;;;;;;41.67;21.57;;;;;;;-2.88;100.00;100569.38;4961744;28;20211;-57
2022/01/14 04:02:49;;;;;;;46.40;22.17;;;;;;;-2.84;100.00;100568.47;4971000;28;20230;-58
2022/01/14 04:05:17;;;;;;;49.93;21.10;;;;;;;-2.83;100.00;100571.88;4971067;28;20211;-58
2022/01/14 04:07:44;;;;;;;45.37;21.50;;;;;;;-2.78;100.00;100571.81;4976452;28;20292;-57
2022/01/14 04:10:11;;;;;;;53.53;24.47;;;;;;;-2.62;100.00;100569.91;4983785;28;20237;-57
2022/01/14 04:12:48;;;;;;;52.43;23.77;;;;;;;-2.60;100.00;100570.75;4981055;28;20291;-58
2022/01/14 04:18:01;;;;;;;52.90;23.20;;;;;;;-2.61;100.00;100559.69;4972606;28;20211;-58
2022/01/14 04:20:30;;;;;;;52.87;23.10;;;;;;;-2.67;100.00;100555.50;4976361;28;20217;-56
2022/01/14 04:22:57;;;;;;;45.87;23.13;;;;;;;-2.67;100.00;100562.31;4973538;28;20778;-59
2022/01/14 04:25:24;;;;;;;41.77;21.10;;;;;;;-2.68;100.00;100553.81;4970619;28;20782;-59
2022/01/14 04:27:51;;;;;;;50.70;23.33;;;;;;;-2.75;100.00;100559.88;4978669;28;20230;-59
2022/01/14 04:30:19;;;;;;;50.63;23.10;;;;;;;-2.78;100.00;100564.16;4983263;28;20193;-58
2022/01/14 04:32:46;;;;;;;52.13;24.63;;;;;;;-2.84;100.00;100568.47;4984997;28;20708;-58
2022/01/14 04:35:13;;;;;;;50.80;24.20;;;;;;;-2.84;100.00;100573.56;4981429;28;20220;-57
2022/01/14 04:37:42;;;;;;;55.80;25.90;;;;;;;-2.89;100.00;100565.13;4978462;28;20193;-58
2022/01/14 04:40:12;;;;;;;57.73;25.97;;;;;;;-2.93;100.00;100566.00;4980265;28;20192;-58
2022/01/14 04:42:41;;;;;;;52.30;24.13;;;;;;;-2.94;100.00;100566.88;4993289;28;20618;-58
2022/01/14 04:45:10;;;;;;;58.13;25.13;;;;;;;-2.93;100.00;100568.56;4987770;28;20664;-58
2022/01/14 04:47:45;;;;;;;63.10;25.90;;;;;;;-2.89;100.00;100562.56;4973038;28;20554;-58
2022/01/14 04:50:13;;;;;;;53.47;24.43;;;;;;;-2.85;100.00;100564.22;4978050;28;20191;-58
2022/01/14 04:52:43;;;;;;;50.83;23.50;;;;;;;-2.85;100.00;100568.50;4983807;28;20226;-57
2022/01/14 04:55:12;;;;;;;60.77;31.40;;;;;;;-2.87;100.00;100571.06;4983581;28;20457;-58
2022/01/14 04:57:40;;;;;;;54.80;25.07;;;;;;;-2.89;100.00;100564.28;4977292;28;20200;-60
2022/01/14 05:00:10;;;;;;;56.63;25.47;;;;;;;-2.89;100.00;100569.41;4970731;28;20206;-58
2022/01/14 05:02:37;;;;;;;49.33;22.97;;;;;;;-2.93;100.00;100567.75;4970641;28;20196;-57
2022/01/14 05:05:04;;;;;;;51.40;23.63;;;;;;;-2.97;100.00;100569.47;4979007;28;20200;-59
2022/01/14 05:07:31;;;;;;;50.30;23.37;;;;;;;-3.00;100.00;100566.94;4972951;28;20535;-58
2022/01/14 05:10:17;;;;;;;53.20;23.07;;;;;;;-3.02;100.00;100561.88;4977477;28;20221;-58
2022/01/14 05:12:44;;;;;;;47.00;22.67;;;;;;;-3.08;100.00;100555.97;4986776;28;20264;-58
2022/01/14 05:15:12;;;;;;;55.90;24.70;;;;;;;-3.12;100.00;100553.44;4973367;28;20708;-57
2022/01/14 05:17:39;;;;;;;49.17;23.03;;;;;;;-3.17;100.00;100547.53;4970974;28;20197;-57
2022/01/14 05:20:08;;;;;;;50.30;22.50;;;;;;;-3.14;100.00;100539.84;4976901;28;20196;-58
2022/01/14 05:22:34;;;;;;;50.93;23.73;;;;;;;-3.11;100.00;100544.91;4971532;28;20585;-58
2022/01/14 05:25:03;;;;;;;76.07;31.77;;;;;;;-3.09;100.00;100536.38;4974303;28;20674;-59
2022/01/14 05:27:30;;;;;;;64.70;27.97;;;;;;;-3.16;100.00;100536.44;4988025;28;20211;-58
2022/01/14 05:29:57;;;;;;;50.33;24.47;;;;;;;-3.20;100.00;100542.47;4978520;28;20212;-59
2022/01/14 05:32:25;;;;;;;54.50;25.53;;;;;;;-3.20;100.00;100541.63;4987363;28;20207;-58
2022/01/14 05:34:52;;;;;;;53.97;24.17;;;;;;;-3.17;100.00;100552.63;4988427;28;20640;-58
2022/01/14 05:37:19;;;;;;;55.30;24.43;;;;;;;-3.14;100.00;100547.50;4978862;28;20271;-59
2022/01/14 05:39:46;;;;;;;53.57;24.20;;;;;;;-3.17;100.00;100550.06;4984902;28;20203;-57
2022/01/14 05:42:15;;;;;;;52.57;23.53;;;;;;;-3.19;100.00;100540.75;4972356;28;20228;-57
2022/01/14 05:44:41;;;;;;;52.13;24.23;;;;;;;-3.20;100.00;100541.63;4982442;28;20225;-59
2022/01/14 05:47:09;;;;;;;52.33;23.27;;;;;;;-3.21;100.00;100540.78;4986630;28;20203;-59
2022/01/14 05:49:36;;;;;;;43.47;21.03;;;;;;;-3.19;100.00;100535.66;4988240;28;20192;-59
2022/01/14 05:52:03;;;;;;;45.97;20.47;;;;;;;-3.21;100.00;100538.22;4977313;28;20252;-58
2022/01/14 05:54:30;;;;;;;39.10;17.97;;;;;;;-3.26;100.00;100540.81;4986217;28;20228;-58
2022/01/14 05:56:56;;;;;;;40.27;18.93;;;;;;;-3.24;100.00;100534.84;4982950;28;20214;-58
2022/01/14 05:59:25;;;;;;;38.43;19.70;;;;;;;-3.26;100.00;100524.66;4976086;28;20209;-59
2022/01/14 06:01:51;;;;;;;42.57;19.27;;;;;;;-3.30;100.00;100528.94;4983085;28;20185;-59
2022/01/14 06:04:18;;;;;;;42.20;21.17;;;;;;;-3.21;100.00;100522.91;4989376;28;20288;-59
2022/01/14 06:06:44;;;;;;;44.10;20.57;;;;;;;-3.23;100.00;100514.41;4977018;28;20206;-59
2022/01/14 06:09:11;;;;;;;46.67;20.17;;;;;;;-3.22;100.00;100513.56;4982481;28;20195;-58
2022/01/14 06:11:38;;;;;;;42.57;20.30;;;;;;;-3.19;100.00;100505.84;4986909;28;20192;-58
2022/01/14 06:14:05;;;;;;;44.23;21.40;;;;;;;-3.13;100.00;100504.94;4974313;28;20238;-58
2022/01/14 06:16:33;;;;;;;56.00;27.17;;;;;;;-3.16;100.00;100510.91;4974703;28;20196;-59
2022/01/14 06:19:00;;;;;;;55.27;25.13;;;;;;;-3.19;100.00;100505.84;4971492;28;20192;-59
2022/01/14 06:21:27;;;;;;;43.77;22.37;;;;;;;-3.20;100.00;100513.53;4985149;28;20200;-57
2022/01/14 06:23:54;;;;;;;47.50;21.73;;;;;;;-3.19;100.00;100527.97;4975429;28;20223;-59
2022/01/14 06:26:21;;;;;;;31.00;15.20;;;;;;;-3.17;100.00;100523.72;4971207;28;20683;-57
2022/01/14 06:28:47;;;;;;;25.63;12.33;;;;;;;-3.19;100.00;100521.19;4976586;28;20205;-58
2022/01/14 06:31:14;;;;;;;27.03;13.03;;;;;;;-3.19;100.00;100520.31;4976003;28;20195;-58
2022/01/14 06:33:42;;;;;;;30.27;14.77;;;;;;;-3.18;100.00;100520.28;4991704;28;20236;-58
2022/01/14 06:36:09;;;;;;;34.90;17.87;;;;;;;-3.18;100.00;100514.34;4980643;28;20802;-58
2022/01/14 06:38:36;;;;;;;39.77;19.07;;;;;;;-3.21;100.00;100532.25;4977275;28;20194;-59
2022/01/14 06:41:03;;;;;;;43.23;18.57;;;;;;;-3.19;100.00;100530.53;4990455;28;20279;-58
2022/01/14 06:43:30;;;;;;;38.33;18.57;;;;;;;-3.19;100.00;100530.53;4990642;28;20723;-58
2022/01/14 06:45:57;;;;;;;32.70;15.30;;;;;;;-3.21;100.00;100525.47;4976434;28;20708;-59
2022/01/14 06:48:24;;;;;;;31.30;15.40;;;;;;;-3.25;100.00;100523.81;4975640;28;20218;-59
2022/01/14 06:50:52;;;;;;;29.27;14.20;;;;;;;-3.29;100.00;100529.81;4990252;28;20199;-57
2022/01/14 06:53:19;;;;;;;28.30;13.37;;;;;;;-3.30;100.00;100530.66;4987374;28;20226;-57
2022/01/14 06:55:46;;;;;;;27.47;13.73;;;;;;;-3.34;100.00;100532.38;4975540;28;20259;-58
2022/01/14 06:58:13;;;;;;;28.10;14.53;;;;;;;-3.31;100.00;100523.88;4975405;28;20215;-58
2022/01/14 07:00:40;;;;;;;29.70;15.93;;;;;;;-3.32;100.00;100522.16;4974186;28;20198;-58
2022/01/14 07:03:06;;;;;;;28.23;14.87;;;;;;;-3.32;100.00;100524.72;4973032;28;20219;-58
2022/01/14 07:05:33;;;;;;;27.07;12.50;;;;;;;-3.21;100.00;100532.25;4979307;28;20187;-58
2022/01/14 07:08:02;;;;;;;30.10;13.60;;;;;;;-3.24;100.00;100527.19;4974148;28;20224;-57
2022/01/14 07:10:34;;;;;;;20.23;10.13;;;;;;;-3.20;100.00;100529.72;4979904;28;20242;-58
2022/01/14 07:13:01;;;;;;;17.43;9.60;;;;;;;-3.23;100.00;100524.63;4977751;28;20207;-58
2022/01/14 07:15:28;;;;;;;15.80;8.63;;;;;;;-3.28;100.00;100532.31;4970255;28;20224;-57
2022/01/14 07:17:56;;;;;;;24.70;11.30;;;;;;;-3.31;100.00;100524.69;4970629;28;20673;-57
2022/01/14 07:20:23;;;;;;;23.23;12.20;;;;;;;-3.31;100.00;100527.25;4969274;28;20300;-58
2022/01/14 07:22:49;;;;;;;23.67;12.13;;;;;;;-3.32;100.00;100533.22;4983018;28;20282;-58
2022/01/14 07:25:18;;;;;;;34.20;18.90;;;;;;;-3.31;100.00;100532.34;4979405;28;20440;-58
2022/01/14 07:27:46;;;;;;;36.07;17.80;;;;;;;-3.31;100.00;100529.81;4986185;28;20196;-58
2022/01/14 07:30:14;;;;;;;34.27;16.93;;;;;;;-3.27;100.00;100528.06;4977069;28;20251;-59
2022/01/14 07:32:41;;;;;;;28.60;14.93;;;;;;;-3.25;100.00;100528.91;4975415;28;20223;-58
2022/01/14 07:35:09;;;;;;;30.20;14.83;;;;;;;-3.23;100.00;100531.44;4975318;28;20693;-58
2022/01/14 07:37:36;;;;;;;27.60;13.90;;;;;;;-3.23;100.00;100523.78;4983487;28;20275;-59
2022/01/14 07:40:03;;;;;;;27.70;14.63;;;;;;;-3.23;100.00;100534.84;4987664;28;20666;-59
2022/01/14 07:42:32;;;;;;;29.27;14.47;;;;;;;-3.24;100.00;100530.59;4979151;28;20311;-56
2022/01/14 07:44:59;;;;;;;27.10;13.77;;;;;;;-3.22;100.00;100536.53;4972827;28;20270;-56
2022/01/14 07:47:26;;;;;;;37.50;20.63;;;;;;;-3.17;100.00;100544.97;4977090;28;20446;-56
2022/01/14 07:49:53;;;;;;;54.77;27.43;;;;;;;-3.11;100.00;100546.63;4974638;28;20196;-55
2022/01/14 07:52:20;;;;;;;68.47;29.87;;;;;;;-3.05;100.00;100551.69;4979298;28;20204;-55
2022/01/14 07:54:47;;;;;;;58.83;26.63;;;;;;;-3.03;100.00;100555.06;4982643;28;20701;-55
2022/01/14 07:57:14;;;;;;;46.20;22.43;;;;;;;-3.02;100.00;100564.41;4984188;28;20199;-54
2022/01/14 07:59:42;;;;;;;32.63;16.03;;;;;;;-3.00;100.00;100566.94;4989188;28;20208;-53
2022/01/14 08:02:09;;;;;;;53.97;27.83;;;;;;;-3.01;100.00;100568.66;4988282;28;20191;-56
2022/01/14 08:04:37;;;;;;;79.60;38.00;;;;;;;-3.07;100.00;100572.97;4974233;28;20697;-53
2022/01/14 08:07:09;;;;;;;91.77;44.97;;;;;;;-3.11;100.00;100573.00;4974741;28;20274;-55
2022/01/14 08:09:37;;;;;;;83.43;41.57;;;;;;;-3.14;100.00;100573.03;4973948;28;20192;-55
2022/01/14 08:12:05;;;;;;;86.30;41.53;;;;;;;-3.21;100.00;100570.56;4974337;28;20677;-55
2022/01/14 08:14:32;;;;;;;93.17;40.60;;;;;;;-3.32;100.00;100576.63;4979116;28;20299;-56
2022/01/14 08:17:00;;;;;;;89.43;40.57;;;;;;;-3.39;100.00;100585.22;4987148;28;20196;-57
2022/01/14 08:19:32;;;;;;;82.77;39.20;;;;;;;-3.43;100.00;100576.75;4974505;28;20297;-55
2022/01/14 08:22:01;;;;;;;85.73;39.60;;;;;;;-3.41;100.00;100584.38;4977546;28;20209;-56
2022/01/14 08:24:28;;;;;;;84.80;42.07;;;;;;;-3.42;100.00;100580.13;4972396;28;20241;-56
2022/01/14 08:26:55;;;;;;;91.30;43.60;;;;;;;-3.35;100.00;100580.94;4971478;28;20201;-55
2022/01/14 08:29:21;;;;;;;93.20;41.63;;;;;;;-3.32;100.00;100575.81;4979615;28;20195;-55
2022/01/14 08:31:48;;;;;;;83.07;39.03;;;;;;;-3.26;100.00;100566.34;4978923;28;20242;-56
2022/01/14 08:34:17;;;;;;;75.97;37.43;;;;;;;-3.27;100.00;100568.94;4974704;28;20281;-57
2022/01/14 08:36:44;;;;;;;74.27;37.50;;;;;;;-3.30;100.00;100567.25;4975985;28;20311;-56
2022/01/14 08:39:11;;;;;;;66.97;34.40;;;;;;;-3.20;100.00;100569.72;4984375;28;20200;-56
2022/01/14 08:41:38;;;;;;;64.63;32.17;;;;;;;-3.16;100.00;100572.22;4973703;28;20263;-54
2022/01/14 08:44:06;;;;;;;52.57;25.27;;;;;;;-3.07;100.00;100570.41;4985685;28;20220;-56
2022/01/14 08:46:34;;;;;;;24.17;13.43;;;;;;;-2.96;100.00;100566.03;4975114;28;20212;-55
2022/01/14 08:49:01;;;;;;;54.07;26.73;;;;;;;-2.85;100.00;100569.34;4974406;28;20357;-56
2022/01/14 08:51:29;;;;;;;41.30;21.10;;;;;;;-2.76;100.00;100573.50;4986025;28;20205;-57
2022/01/14 08:54:02;;;;;;;38.97;20.20;;;;;;;-2.69;100.00;100570.03;4984075;28;20256;-57
2022/01/14 08:56:31;;;;;;;31.40;15.17;;;;;;;-2.57;100.00;100571.56;4973215;28;20206;-55
2022/01/14 08:58:57;;;;;;;71.87;27.17;;;;;;;-2.45;100.00;100577.41;4992840;28;20711;-56
2022/01/14 09:01:24;;;;;;;55.07;23.97;;;;;;;-2.35;100.00;100566.19;4974385;28;20196;-55
2022/01/14 09:03:51;;;;;;;42.90;19.20;;;;;;;-2.30;100.00;100566.09;4978921;28;20290;-56
2022/01/14 09:06:18;;;;;;;35.37;15.63;;;;;;;-2.20;100.00;100561.72;4975467;28;20192;-55
2022/01/14 09:08:46;;;;;;;20.20;10.33;;;;;;;-2.10;100.00;100556.44;4978732;28;20196;-55
2022/01/14 09:11:13;;;;;;;15.50;7.23;;;;;;;-1.99;100.00;100553.69;4976385;28;20202;-56
2022/01/14 09:13:40;;;;;;;14.63;7.00;;;;;;;-1.87;100.00;100544.16;4973137;28;20213;-55
2022/01/14 09:16:07;;;;;;;12.33;6.03;;;;;;;-1.79;100.00;100548.28;4987263;28;20420;-54
2022/01/14 09:18:33;;;;;;;11.13;6.53;;;;;;;-1.72;100.00;100549.03;4975384;28;20201;-56
2022/01/14 09:21:00;;;;;;;13.00;7.00;;;;;;;-1.63;100.00;100546.31;4971268;28;20280;-55
2022/01/14 09:23:28;;;;;;;15.90;7.27;;;;;;;-1.49;100.00;100535.81;4981146;28;20226;-54
2022/01/14 09:25:57;;;;;;;13.60;6.60;;;;;;;-1.39;100.00;100546.78;4991842;28;20197;-54
2022/01/14 09:28:24;;;;;;;11.80;6.60;;;;;;;-1.22;100.00;100550.75;4976819;28;20224;-54
2022/01/14 09:30:51;;;;;;;15.03;8.00;;;;;;;-1.09;100.00;100547.09;4985849;28;20193;-56
2022/01/14 09:33:18;;;;;;;12.83;6.97;;;;;;;-0.98;100.00;100543.44;4979419;28;20268;-56
2022/01/14 09:35:46;;;;;;;67.93;33.27;;;;;;;-0.84;100.00;100554.28;4988050;28;20552;-54
2022/01/14 09:38:14;;;;;;;74.37;33.80;;;;;;;-0.82;100.00;100549.97;4987874;28;20200;-54
2022/01/14 09:40:44;;;;;;;70.07;36.03;;;;;;;-0.80;99.06;100555.09;4991664;28;20205;-55
2022/01/14 09:43:14;;;;;;;85.30;40.53;;;;;;;-0.87;97.84;100558.63;4977616;28;20236;-57
2022/01/14 09:45:42;;;;;;;82.50;40.13;;;;;;;-0.82;98.52;100560.22;4985375;28;20691;-56
2022/01/14 09:48:08;;;;;;;76.60;38.40;;;;;;;-0.76;98.44;100557.53;4990872;28;20237;-57
2022/01/14 09:50:35;;;;;;;65.87;36.67;;;;;;;-0.68;97.68;100559.97;4988112;28;20197;-55
2022/01/14 09:53:03;;;;;;;64.27;36.20;;;;;;;-0.66;97.01;100558.22;4990291;28;20241;-55
2022/01/14 09:55:30;;;;;;;66.67;36.03;;;;;;;-0.61;95.67;100558.97;4974210;28;20293;-55
2022/01/14 09:57:57;;;;;;;67.47;35.93;;;;;;;-0.53;95.21;100565.66;4978294;28;20196;-55
2022/01/14 10:00:26;;;;;;;66.47;36.27;;;;;;;-0.50;95.21;100558.72;4976894;28;20221;-56
2022/01/14 10:02:52;;;;;;;65.43;34.90;;;;;;;-0.44;94.80;100562.88;4978188;28;20693;-56
2022/01/14 10:05:35;;;;;;;68.23;37.73;;;;;;;-0.41;94.63;100569.69;4973292;28;20196;-56
2022/01/14 10:08:10;;;;;;;134.67;66.27;;;;;;;-0.42;94.33;100575.69;4986564;28;20198;-56
2022/01/14 10:10:38;;;;;;;142.30;70.90;;;;;;;-0.39;94.21;100571.31;4978724;28;20285;-55
2022/01/14 10:13:13;;;;;;;91.67;45.73;;;;;;;-0.37;93.52;100577.25;4975222;28;20244;-56
2022/01/14 10:15:47;;;;;;;74.47;38.73;;;;;;;-0.33;93.85;100583.19;4969567;28;20217;-55
2022/01/14 10:18:15;;;;;;;67.73;37.17;;;;;;;-0.28;94.13;100581.38;4977952;28;20208;-55
2022/01/14 10:20:43;;;;;;;60.37;33.43;;;;;;;-0.27;92.79;100590.75;4970983;28;20197;-56
2022/01/14 10:23:12;;;;;;;62.47;32.53;;;;;;;-0.32;92.54;100582.31;4978132;28;20245;-56
2022/01/14 10:25:39;;;;;;;64.90;34.13;;;;;;;-0.42;92.57;100585.94;4973022;28;20208;-46
2022/01/14 10:28:17;;;;;;;63.37;32.20;;;;;;;0.76;100.00;100583.22;4971342;28;20201;-47
2022/01/14 10:30:47;;;;;;;65.57;34.47;;;;;;;0.80;96.99;100579.69;4968571;28;20204;-55
2022/01/14 10:33:18;;;;;;;65.60;33.57;;;;;;;0.29;91.04;100580.06;4976565;28;20227;-55
2022/01/14 10:35:47;;;;;;;63.97;33.77;;;;;;;0.33;90.66;100582.56;4967714;28;20210;-55
2022/01/14 10:38:15;;;;;;;57.23;33.13;;;;;;;0.25;90.59;100568.19;4973051;28;20232;-55
2022/01/14 10:40:45;;;;;;;64.73;35.67;;;;;;;0.13;89.83;100563.34;4972939;28;20278;-55
2022/01/14 10:43:15;;;;;;;59.97;34.27;;;;;;;0.10;90.50;100563.41;4975996;28;20228;-55
2022/01/14 10:45:43;;;;;;;64.83;33.33;;;;;;;0.10;90.29;100556.53;4973267;28;20202;-55
2022/01/14 10:48:14;;;;;;;72.40;35.67;;;;;;;0.17;90.79;100556.38;4972054;28;20210;-55
2022/01/14 10:50:43;;;;;;;69.00;35.27;;;;;;;0.20;91.26;100553.75;4972775;28;20206;-55
2022/01/14 10:53:13;;;;;;;64.73;35.43;;;;;;;0.18;91.31;100543.53;4973105;28;20228;-55
2022/01/14 10:55:42;;;;;;;70.13;35.47;;;;;;;0.26;91.78;100543.31;4973075;28;20285;-55
2022/01/14 10:58:18;;;;;;;69.90;36.77;;;;;;;0.32;91.40;100545.75;4972509;28;20227;-55
2022/01/14 11:00:47;;;;;;;66.27;35.30;;;;;;;0.41;92.20;100535.25;4972758;28;20192;-55
2022/01/14 11:03:16;;;;;;;63.63;33.43;;;;;;;0.51;91.96;100522.16;4990535;28;20304;-55
2022/01/14 11:05:43;;;;;;;66.17;33.63;;;;;;;0.60;91.55;100527.06;4992398;28;20213;-55
2022/01/14 11:08:10;;;;;;;51.13;28.67;;;;;;;0.63;90.79;100527.00;4992418;28;20764;-56
2022/01/14 11:10:39;;;;;;;56.57;28.63;;;;;;;0.71;90.12;100525.06;4991814;28;20189;-55
2022/01/14 11:13:11;;;;;;;58.37;32.00;;;;;;;0.77;91.49;100521.47;4992314;28;20262;-55
2022/01/14 11:15:38;;;;;;;58.47;32.10;;;;;;;0.82;91.28;100511.91;4991093;28;20275;-55
2022/01/14 11:18:07;;;;;;;58.40;32.23;;;;;;;0.88;91.13;100505.75;4992040;28;20469;-55
2022/01/14 11:23:14;;;;;;;60.57;32.23;;;;;;;0.97;90.28;100500.38;4990458;28;20257;-56
2022/01/14 11:23:23;;;;;;;65.50;34.50;;;;;;;0.98;89.01;100508.91;4957845;28;20214;-56
2022/01/14 11:25:56;;;;;;;71.50;38.27;;;;;;;0.84;88.95;100501.59;4971567;28;20200;-55
2022/01/14 11:28:29;;;;;;;69.70;36.53;;;;;;;0.77;90.23;100503.47;4972322;28;20217;-55
2022/01/14 11:30:57;;;;;;;66.90;35.23;;;;;;;0.68;90.49;100490.88;4973024;28;20193;-55
2022/01/14 11:33:40;;;;;;;65.80;36.03;;;;;;;0.59;90.00;100494.53;4972478;28;20205;-55
2022/01/14 11:36:09;;;;;;;62.63;33.37;;;;;;;0.57;90.45;100486.03;4972384;28;20202;-55
2022/01/14 11:38:40;;;;;;;58.07;30.43;;;;;;;0.60;91.09;100478.25;4972523;28;20186;-55
2022/01/14 11:41:08;;;;;;;55.00;28.67;;;;;;;0.68;90.48;100478.88;4969168;28;20211;-55
2022/01/14 11:47:00;;;;;;;65.70;35.43;;;;;;;0.92;91.39;100471.38;4971465;28;20280;-55
2022/01/14 11:49:38;;;;;;;65.93;36.37;;;;;;;0.97;91.03;100466.09;4972263;28;20205;-55
2022/01/14 11:52:11;;;;;;;72.03;36.50;;;;;;;1.04;90.91;100470.16;4953094;28;20195;-55
2022/01/14 11:54:43;;;;;;;72.50;39.38;;;;;;;1.10;90.12;100464.84;4952915;28;20439;-55
2022/01/14 11:57:11;;;;;;;63.40;37.13;;;;;;;1.14;90.28;100463.00;4964505;28;20212;-55
2022/01/14 11:59:46;;;;;;;62.30;33.10;;;;;;;1.15;89.48;100456.97;4966217;28;20224;-56